createdAt,value
2022-08-23T00:00:13.306Z,56.40
2022-08-23T00:02:43.597Z,56.50
2022-08-23T00:05:12.801Z,56.50
2022-08-23T00:07:43.606Z,56.50
2022-08-23T00:10:15.604Z,56.50
2022-08-23T00:12:45.311Z,56.60
2022-08-23T00:15:16.751Z,56.70
2022-08-23T00:17:46.216Z,56.80
2022-08-23T00:20:20.230Z,57.00
2022-08-23T00:22:48.773Z,57.00
2022-08-23T00:25:17.107Z,57.10
2022-08-23T00:27:48.967Z,57.70
2022-08-23T00:30:19.108Z,57.00
2022-08-23T00:32:49.888Z,57.10
2022-08-23T00:35:27.030Z,57.10
2022-08-23T00:38:33.423Z,57.20
2022-08-23T00:40:51.013Z,57.20
2022-08-23T00:43:43.135Z,57.30
2022-08-23T00:46:39.649Z,57.50
2022-08-23T00:49:14.003Z,57.90
2022-08-23T00:51:52.276Z,58.00
2022-08-23T00:54:24.446Z,58.30
2022-08-23T00:56:54.520Z,58.40
2022-08-23T00:59:23.879Z,58.70
2022-08-23T01:01:52.604Z,58.80
2022-08-23T01:04:22.774Z,58.70
2022-08-23T01:06:58.303Z,58.80
2022-08-23T01:09:27.127Z,59.00
2022-08-23T01:12:04.531Z,59.00
2022-08-23T01:14:39.724Z,59.00
2022-08-23T01:17:13.740Z,59.10
2022-08-23T01:19:51.714Z,59.30
2022-08-23T01:22:28.335Z,59.30
2022-08-23T01:25:06.078Z,59.40
2022-08-23T01:27:39.803Z,59.30
2022-08-23T01:30:11.715Z,59.20
2022-08-23T01:32:45.548Z,59.10
2022-08-23T01:35:16.655Z,59.20
2022-08-23T01:37:46.339Z,59.00
2022-08-23T01:40:16.133Z,59.10
2022-08-23T01:42:45.318Z,59.30
2022-08-23T01:45:15.626Z,59.30
2022-08-23T01:47:43.854Z,59.20
2022-08-23T01:50:14.071Z,59.20
2022-08-23T01:52:46.983Z,59.80
2022-08-23T01:55:19.562Z,59.30
2022-08-23T01:57:54.379Z,59.50
2022-08-23T02:00:29.879Z,59.50
2022-08-23T02:02:59.381Z,59.50
2022-08-23T02:05:28.565Z,59.50
2022-08-23T02:07:57.220Z,59.40
2022-08-23T02:10:26.803Z,59.60
2022-08-23T02:12:56.521Z,59.50
2022-08-23T02:15:24.787Z,59.60
2022-08-23T02:17:55.110Z,59.80
2022-08-23T02:20:23.631Z,59.80
2022-08-23T02:22:51.876Z,59.90
2022-08-23T02:25:20.265Z,60.00
2022-08-23T02:27:49.763Z,60.00
2022-08-23T02:30:18.014Z,60.20
2022-08-23T02:32:46.229Z,60.10
2022-08-23T02:35:16.374Z,60.00
2022-08-23T02:37:44.628Z,59.90
2022-08-23T02:40:13.254Z,59.80
2022-08-23T02:42:41.854Z,59.80
2022-08-23T02:45:13.186Z,59.70
2022-08-23T02:47:46.820Z,59.80
2022-08-23T02:50:28.351Z,59.60
2022-08-23T02:52:58.403Z,59.60
2022-08-23T02:55:28.955Z,59.60
2022-08-23T02:57:57.169Z,59.30
2022-08-23T03:00:27.637Z,59.50
2022-08-23T03:02:56.179Z,59.60
2022-08-23T03:05:24.708Z,59.60
2022-08-23T03:07:52.897Z,59.50
2022-08-23T03:10:22.814Z,59.30
2022-08-23T03:12:57.086Z,59.30
2022-08-23T03:15:25.174Z,59.30
2022-08-23T03:17:54.869Z,58.90
2022-08-23T03:20:23.559Z,59.10
2022-08-23T03:22:54.656Z,59.30
2022-08-23T03:25:27.150Z,59.20
2022-08-23T03:28:05.777Z,59.10
2022-08-23T03:30:36.098Z,59.20
2022-08-23T03:33:07.027Z,59.20
2022-08-23T03:35:35.383Z,59.20
2022-08-23T03:38:05.134Z,59.10
2022-08-23T03:40:33.486Z,59.20
2022-08-23T03:43:02.461Z,59.20
2022-08-23T03:45:32.210Z,59.30
2022-08-23T03:48:01.415Z,59.30
2022-08-23T03:50:31.228Z,59.30
2022-08-23T03:52:59.525Z,59.30
2022-08-23T03:55:27.726Z,59.50
2022-08-23T03:57:58.177Z,59.40
2022-08-23T04:00:27.366Z,59.40
2022-08-23T04:02:56.178Z,59.50
2022-08-23T04:05:26.711Z,59.40
2022-08-23T04:08:02.518Z,59.30
2022-08-23T04:10:30.939Z,59.30
2022-08-23T04:12:59.306Z,59.40
2022-08-23T04:15:27.683Z,59.50
2022-08-23T04:17:55.902Z,59.50
2022-08-23T04:20:25.839Z,59.60
2022-08-23T04:23:03.043Z,60.00
2022-08-23T04:25:35.955Z,60.40
2022-08-23T04:28:06.483Z,60.30
2022-08-23T04:30:35.546Z,60.50
2022-08-23T04:33:09.979Z,60.50
2022-08-23T04:35:41.342Z,60.70
2022-08-23T04:38:18.271Z,60.80
2022-08-23T04:41:13.233Z,60.70
2022-08-23T04:43:43.939Z,60.50
2022-08-23T04:46:15.590Z,61.30
2022-08-23T04:48:47.266Z,62.10
2022-08-23T04:51:16.857Z,61.70
2022-08-23T04:53:46.693Z,61.70
2022-08-23T04:56:40.483Z,60.60
2022-08-23T04:59:13.097Z,60.40
2022-08-23T05:01:42.869Z,60.00
2022-08-23T05:04:11.772Z,59.80
2022-08-23T05:06:41.480Z,59.80
2022-08-23T05:09:11.013Z,59.70
2022-08-23T05:11:39.374Z,59.60
2022-08-23T05:14:08.207Z,59.60
2022-08-23T05:16:36.565Z,59.50
2022-08-23T05:19:10.387Z,59.50
2022-08-23T05:21:44.480Z,59.60
2022-08-23T05:24:14.556Z,59.60
2022-08-23T05:26:44.644Z,59.50
2022-08-23T05:29:13.161Z,59.40
2022-08-23T05:31:50.006Z,59.30
2022-08-23T05:34:22.370Z,59.40
2022-08-23T05:36:56.200Z,59.30
2022-08-23T05:39:36.691Z,59.30
2022-08-23T05:42:08.365Z,59.30
2022-08-23T05:44:37.266Z,59.30
2022-08-23T05:47:10.810Z,59.50
2022-08-23T05:49:46.207Z,59.20
2022-08-23T05:52:15.529Z,59.20
2022-08-23T05:54:46.743Z,59.40
2022-08-23T05:57:36.602Z,59.60
2022-08-23T06:00:08.818Z,60.60
2022-08-23T06:02:47.133Z,60.00
2022-08-23T06:05:16.180Z,59.40
2022-08-23T06:07:46.388Z,59.50
2022-08-23T06:10:16.553Z,59.20
2022-08-23T06:12:50.754Z,59.10
2022-08-23T06:15:19.181Z,59.00
2022-08-23T06:17:48.334Z,58.80
2022-08-23T06:20:17.180Z,58.90
2022-08-23T06:23:03.406Z,58.80
2022-08-23T06:25:36.874Z,58.80
2022-08-23T06:28:11.475Z,58.70
2022-08-23T06:30:40.895Z,58.80
2022-08-23T06:33:20.621Z,58.80
2022-08-23T06:35:49.122Z,58.70
2022-08-23T06:38:37.356Z,58.80
2022-08-23T06:41:14.691Z,59.40
2022-08-23T06:43:51.807Z,59.10
2022-08-23T06:46:56.410Z,59.10
2022-08-23T06:49:27.618Z,59.10
2022-08-23T06:51:59.952Z,59.20
2022-08-23T06:54:39.244Z,59.30
2022-08-23T06:57:42.678Z,59.30
2022-08-23T07:00:29.359Z,59.40
2022-08-23T07:03:13.539Z,59.30
2022-08-23T07:06:00.152Z,60.10
2022-08-23T07:08:30.902Z,60.30
2022-08-23T07:11:00.021Z,60.20
2022-08-23T07:13:29.628Z,60.20
2022-08-23T07:16:03.097Z,59.90
2022-08-23T07:18:33.604Z,59.90
2022-08-23T07:21:05.156Z,59.80
2022-08-23T07:23:36.394Z,59.80
2022-08-23T07:26:11.449Z,59.80
2022-08-23T07:28:43.774Z,59.80
2022-08-23T07:31:16.288Z,59.90
2022-08-23T07:33:47.782Z,59.90
2022-08-23T07:36:22.932Z,60.00
2022-08-23T07:38:51.913Z,59.90
2022-08-23T07:41:24.058Z,59.80
2022-08-23T07:43:54.965Z,59.70
2022-08-23T07:46:23.199Z,59.70
2022-08-23T07:48:54.850Z,59.60
2022-08-23T07:51:35.087Z,59.50
2022-08-23T07:54:04.945Z,59.50
2022-08-23T07:56:35.479Z,59.50
2022-08-23T07:59:11.512Z,59.50
2022-08-23T08:01:44.768Z,59.50
2022-08-23T08:04:13.754Z,59.50
2022-08-23T08:06:59.916Z,59.50
2022-08-23T08:09:34.870Z,59.50
2022-08-23T08:12:03.055Z,59.50
2022-08-23T08:14:35.945Z,59.50
2022-08-23T08:17:06.921Z,59.50
2022-08-23T08:19:53.817Z,59.50
2022-08-23T08:22:58.469Z,59.50
2022-08-23T08:25:36.034Z,59.50
2022-08-23T08:28:09.435Z,59.50
2022-08-23T08:30:42.520Z,59.50
2022-08-23T08:33:11.112Z,59.50
2022-08-23T08:35:40.064Z,59.50
2022-08-23T08:38:09.088Z,59.60
2022-08-23T08:40:41.307Z,59.60
2022-08-23T08:43:27.748Z,59.60
2022-08-23T08:46:07.843Z,59.60
2022-08-23T08:48:44.782Z,60.20
2022-08-23T08:51:32.968Z,59.60
2022-08-23T08:54:04.654Z,59.60
2022-08-23T08:56:43.250Z,59.50
2022-08-23T08:59:23.570Z,60.40
2022-08-23T09:01:53.777Z,60.40
2022-08-23T09:04:29.986Z,60.00
2022-08-23T09:07:10.452Z,60.00
2022-08-23T09:10:17.636Z,60.00
2022-08-23T09:13:18.049Z,59.80
2022-08-23T09:15:59.430Z,59.80
2022-08-23T09:18:36.320Z,59.70
2022-08-23T09:21:09.726Z,59.90
2022-08-23T09:23:43.647Z,59.80
2022-08-23T09:26:24.169Z,59.80
2022-08-23T09:28:55.464Z,59.80
2022-08-23T09:31:43.171Z,59.80
2022-08-23T09:34:19.976Z,59.90
2022-08-23T09:37:13.283Z,59.90
2022-08-23T09:39:44.672Z,60.00
2022-08-23T09:42:32.337Z,59.90
2022-08-23T09:45:01.974Z,59.90
2022-08-23T09:47:44.491Z,59.90
2022-08-23T09:50:27.794Z,59.90
2022-08-23T09:53:03.948Z,60.00
2022-08-23T09:55:36.823Z,60.00
2022-08-23T09:58:08.303Z,60.00
2022-08-23T10:00:38.471Z,60.00
2022-08-23T10:03:27.137Z,60.00
2022-08-23T10:06:05.199Z,60.00
2022-08-23T10:08:43.119Z,60.00
2022-08-23T10:11:18.826Z,60.00
2022-08-23T10:13:48.487Z,60.10
2022-08-23T10:16:30.563Z,60.00
2022-08-23T10:19:15.487Z,60.10
2022-08-23T10:21:58.684Z,60.10
2022-08-23T10:24:42.143Z,60.10
2022-08-23T10:27:49.109Z,60.00
2022-08-23T10:30:23.523Z,60.10
2022-08-23T10:33:07.857Z,60.10
2022-08-23T10:35:52.672Z,60.10
2022-08-23T10:38:42.268Z,60.20
2022-08-23T10:41:41.232Z,60.30
2022-08-23T10:44:25.904Z,60.40
2022-08-23T10:47:11.391Z,61.20
2022-08-23T10:49:43.124Z,60.30
2022-08-23T10:52:20.559Z,60.30
2022-08-23T10:55:05.761Z,60.30
2022-08-23T10:57:41.268Z,60.70
2022-08-23T11:00:17.240Z,60.60
2022-08-23T11:02:56.870Z,60.60
2022-08-23T11:05:32.703Z,61.00
2022-08-23T11:08:10.850Z,61.10
2022-08-23T11:10:56.221Z,61.30
2022-08-23T11:13:33.448Z,61.40
2022-08-23T11:16:07.055Z,61.20
2022-08-23T11:18:46.461Z,61.20
2022-08-23T11:21:48.295Z,61.30
2022-08-23T11:24:56.790Z,61.30
2022-08-23T11:27:39.024Z,61.20
2022-08-23T11:30:46.934Z,61.20
2022-08-23T11:33:24.484Z,61.20
2022-08-23T11:36:16.489Z,61.30
2022-08-23T11:39:12.497Z,61.20
2022-08-23T11:42:04.572Z,61.30
2022-08-23T11:44:43.138Z,60.90
2022-08-23T11:47:14.229Z,61.00
2022-08-23T11:50:15.155Z,61.00
2022-08-23T11:53:11.156Z,61.00
2022-08-23T11:56:22.363Z,61.00
2022-08-23T11:59:18.356Z,61.10
2022-08-23T12:01:48.272Z,60.90
2022-08-23T12:04:34.295Z,60.90
2022-08-23T12:07:07.174Z,61.00
2022-08-23T12:09:57.360Z,61.20
2022-08-23T12:12:39.265Z,61.10
2022-08-23T12:15:13.182Z,61.10
2022-08-23T12:18:17.397Z,61.00
2022-08-23T12:20:49.930Z,61.00
2022-08-23T12:23:21.969Z,61.00
2022-08-23T12:26:03.299Z,61.00
2022-08-23T12:28:42.269Z,61.00
2022-08-23T12:31:21.848Z,60.90
2022-08-23T12:34:15.338Z,61.00
2022-08-23T12:36:56.874Z,60.90
2022-08-23T12:39:32.557Z,61.00
2022-08-23T12:42:10.604Z,60.90
2022-08-23T12:44:38.944Z,60.80
2022-08-23T12:47:14.588Z,60.80
2022-08-23T12:49:54.655Z,60.90
2022-08-23T12:52:27.843Z,60.90
2022-08-23T12:54:58.002Z,61.00
2022-08-23T12:57:36.947Z,60.90
2022-08-23T13:00:18.788Z,61.00
2022-08-23T13:02:56.389Z,61.00
2022-08-23T13:05:36.529Z,61.00
2022-08-23T13:08:10.646Z,61.00
2022-08-23T13:10:43.755Z,61.00
2022-08-23T13:13:15.523Z,60.90
2022-08-23T13:15:52.991Z,60.70
2022-08-23T13:18:41.312Z,60.60
2022-08-23T13:21:31.962Z,60.60
2022-08-23T13:24:37.759Z,60.40
2022-08-23T13:27:22.498Z,61.10
2022-08-23T13:29:57.446Z,60.40
2022-08-23T13:32:30.876Z,60.40
2022-08-23T13:35:30.265Z,60.40
2022-08-23T13:38:09.094Z,60.50
2022-08-23T13:40:44.442Z,60.50
2022-08-23T13:43:21.221Z,60.60
2022-08-23T13:45:52.679Z,60.60
2022-08-23T13:48:24.010Z,60.50
2022-08-23T13:50:52.721Z,60.50
2022-08-23T13:53:22.875Z,60.40
2022-08-23T13:55:56.512Z,60.40
2022-08-23T13:58:30.787Z,60.40
2022-08-23T14:01:00.627Z,60.40
2022-08-23T14:03:31.341Z,60.40
2022-08-23T14:05:59.623Z,60.40
2022-08-23T14:08:29.159Z,60.30
2022-08-23T14:10:57.327Z,60.30
2022-08-23T14:13:29.731Z,60.20
2022-08-23T14:21:42.229Z,60.10
2022-08-23T14:24:11.747Z,60.00
2022-08-23T14:26:51.678Z,60.00
2022-08-23T14:29:22.268Z,60.00
2022-08-23T14:31:51.811Z,60.00
2022-08-23T14:34:20.435Z,60.00
2022-08-23T14:39:38.708Z,60.00
2022-08-23T14:42:08.535Z,60.10
2022-08-23T14:44:36.758Z,60.10
2022-08-23T14:47:06.476Z,61.80
2022-08-23T14:49:35.814Z,61.70
2022-08-23T14:52:04.870Z,61.40
2022-08-23T14:54:34.478Z,61.10
2022-08-23T14:57:04.056Z,61.10
2022-08-23T14:59:32.210Z,61.10
2022-08-23T15:02:00.861Z,61.90
2022-08-23T15:04:34.499Z,61.30
2022-08-23T15:07:17.831Z,61.50
2022-08-23T15:09:46.934Z,61.20
2022-08-23T15:15:09.439Z,61.00
2022-08-23T15:17:48.107Z,61.10
2022-08-23T15:20:16.509Z,60.90
2022-08-23T15:22:44.972Z,61.40
2022-08-23T15:25:18.090Z,60.80
2022-08-23T15:27:48.574Z,61.00
2022-08-23T15:30:17.748Z,60.90
2022-08-23T15:32:50.216Z,61.20
2022-08-23T15:35:21.536Z,61.10
2022-08-23T15:37:50.588Z,67.70
2022-08-23T15:40:19.209Z,65.70
2022-08-23T15:42:49.074Z,65.30
2022-08-23T15:45:18.738Z,64.80
2022-08-23T15:47:51.781Z,64.70
2022-08-23T15:50:26.446Z,65.10
2022-08-23T15:52:55.843Z,64.80
2022-08-23T15:55:25.730Z,64.40
2022-08-23T15:57:58.136Z,64.10
2022-08-23T16:00:27.667Z,66.60
2022-08-23T16:03:20.415Z,68.70
2022-08-23T16:05:57.412Z,73.10
2022-08-23T16:08:28.574Z,75.50
2022-08-23T16:10:58.142Z,74.50
2022-08-23T16:13:28.875Z,71.20
2022-08-23T16:15:57.993Z,81.20
2022-08-23T16:18:26.424Z,71.70
2022-08-23T16:20:54.694Z,69.20
2022-08-23T16:23:23.404Z,68.30
2022-08-23T16:25:51.684Z,67.40
2022-08-23T16:28:19.910Z,67.20
2022-08-23T16:30:49.547Z,66.70
2022-08-23T16:33:17.759Z,66.50
2022-08-23T16:35:45.993Z,66.10
2022-08-23T16:38:14.215Z,65.80
2022-08-23T16:40:42.339Z,65.50
2022-08-23T16:43:10.567Z,67.00
2022-08-23T16:45:38.698Z,68.50
2022-08-23T16:48:10.681Z,66.80
2022-08-23T16:50:42.900Z,66.30
2022-08-23T16:53:11.424Z,66.10
2022-08-23T16:55:40.953Z,65.90
2022-08-23T16:58:09.239Z,65.70
2022-08-23T17:00:38.577Z,65.70
2022-08-23T17:03:08.357Z,65.60
2022-08-23T17:05:37.380Z,65.50
2022-08-23T17:08:05.878Z,65.30
2022-08-23T17:10:34.726Z,65.20
2022-08-23T17:13:03.862Z,65.10
2022-08-23T17:15:35.553Z,65.10
2022-08-23T17:18:04.346Z,65.00
2022-08-23T17:20:37.920Z,64.80
2022-08-23T17:23:06.876Z,64.70
2022-08-23T17:25:36.581Z,64.70
2022-08-23T17:28:06.688Z,64.50
2022-08-23T17:30:35.520Z,64.70
2022-08-23T17:33:04.318Z,64.40
2022-08-23T17:35:34.753Z,64.40
2022-08-23T17:38:05.601Z,64.20
2022-08-23T17:40:37.555Z,64.10
2022-08-23T17:43:06.440Z,64.10
2022-08-23T17:45:42.080Z,64.00
2022-08-23T17:48:10.862Z,63.90
2022-08-23T17:50:41.543Z,63.80
2022-08-23T17:53:10.696Z,63.80
2022-08-23T17:55:40.793Z,63.70
2022-08-23T17:58:10.401Z,63.70
2022-08-23T18:00:40.461Z,63.70
2022-08-23T18:03:08.740Z,63.60
2022-08-23T18:05:42.841Z,63.40
2022-08-23T18:08:11.346Z,63.20
2022-08-23T18:10:43.360Z,63.10
2022-08-23T18:13:13.778Z,63.00
2022-08-23T18:15:41.988Z,63.00
2022-08-23T18:18:10.507Z,62.90
2022-08-23T18:20:40.035Z,62.90
2022-08-23T18:23:08.249Z,62.90
2022-08-23T18:25:37.088Z,62.90
2022-08-23T18:28:08.489Z,62.80
2022-08-23T18:30:46.859Z,62.80
2022-08-23T18:33:15.887Z,62.80
2022-08-23T18:35:48.981Z,62.80
2022-08-23T18:38:18.150Z,62.80
2022-08-23T18:40:49.912Z,62.80
2022-08-23T18:43:22.034Z,62.70
2022-08-23T18:45:54.509Z,62.70
2022-08-23T18:48:24.189Z,62.70
2022-08-23T18:50:53.906Z,62.80
2022-08-23T18:53:22.385Z,62.80
2022-08-23T18:55:51.101Z,62.90
2022-08-23T18:58:21.033Z,62.80
2022-08-23T19:00:51.710Z,62.80
2022-08-23T19:03:20.442Z,62.80
2022-08-23T19:05:49.214Z,62.70
2022-08-23T19:08:19.348Z,62.70
2022-08-23T19:10:48.285Z,62.60
2022-08-23T19:13:16.721Z,62.60
2022-08-23T19:15:44.997Z,62.50
2022-08-23T19:18:14.598Z,62.50
2022-08-23T19:20:43.476Z,62.50
2022-08-23T19:23:11.692Z,62.50
2022-08-23T19:25:45.294Z,62.50
2022-08-23T19:28:14.635Z,62.40
2022-08-23T19:30:44.419Z,62.40
2022-08-23T19:33:13.114Z,62.40
2022-08-23T19:35:42.524Z,62.30
2022-08-23T19:38:12.050Z,62.70
2022-08-23T19:40:42.390Z,66.60
2022-08-23T19:43:11.223Z,65.50
2022-08-23T19:45:39.827Z,65.80
2022-08-23T19:48:08.144Z,65.50
2022-08-23T19:50:37.000Z,64.60
2022-08-23T19:53:05.489Z,64.50
2022-08-23T19:55:35.369Z,64.10
2022-08-23T19:58:07.399Z,64.00
2022-08-23T20:00:36.415Z,63.90
2022-08-23T20:03:05.518Z,63.80
2022-08-23T20:05:34.979Z,63.70
2022-08-23T20:08:04.246Z,63.70
2022-08-23T20:10:32.424Z,63.70
2022-08-23T20:13:01.017Z,63.60
2022-08-23T20:15:30.906Z,63.80
2022-08-23T20:17:59.702Z,63.70
2022-08-23T20:20:28.001Z,63.50
2022-08-23T20:23:13.973Z,63.30
2022-08-23T20:25:42.956Z,63.70
2022-08-23T20:28:11.722Z,63.90
2022-08-23T20:30:41.782Z,63.80
2022-08-23T20:33:10.329Z,63.70
2022-08-23T20:35:38.618Z,63.70
2022-08-23T20:38:06.990Z,63.80
2022-08-23T20:40:35.238Z,63.80
2022-08-23T20:43:03.916Z,63.70
2022-08-23T20:45:33.260Z,63.80
2022-08-23T20:48:02.884Z,63.40
2022-08-23T20:50:31.307Z,63.60
2022-08-23T20:52:59.597Z,64.00
2022-08-23T20:55:28.209Z,64.00
2022-08-23T20:57:57.329Z,64.10
2022-08-23T21:00:25.651Z,64.10
2022-08-23T21:02:54.068Z,63.80
2022-08-23T21:05:23.778Z,63.90
2022-08-23T21:07:52.404Z,64.00
2022-08-23T21:10:21.369Z,64.30
2022-08-23T21:12:49.711Z,63.70
2022-08-23T21:15:18.144Z,63.30
2022-08-23T21:17:46.760Z,62.60
2022-08-23T21:20:16.621Z,61.80
2022-08-23T21:22:46.291Z,61.90
2022-08-23T21:25:15.016Z,62.40
2022-08-23T21:27:43.684Z,62.10
2022-08-23T21:30:13.254Z,61.50
2022-08-23T21:32:41.638Z,61.00
2022-08-23T21:35:11.747Z,60.80
2022-08-23T21:37:40.271Z,60.90
2022-08-23T21:40:12.204Z,60.90
2022-08-23T21:42:40.635Z,60.70
2022-08-23T21:45:10.425Z,60.10
2022-08-23T21:47:39.644Z,59.90
2022-08-23T21:50:08.846Z,60.10
2022-08-23T21:52:37.717Z,59.90
2022-08-23T21:55:07.972Z,59.80
2022-08-23T21:57:37.832Z,60.00
2022-08-23T22:00:10.986Z,59.50
2022-08-23T22:02:41.366Z,59.50
2022-08-23T22:05:10.861Z,59.50
2022-08-23T22:07:40.172Z,59.70
2022-08-23T22:10:11.245Z,59.90
2022-08-23T22:12:41.897Z,59.80
2022-08-23T22:15:12.124Z,59.70
2022-08-23T22:17:40.726Z,60.70
2022-08-23T22:20:13.449Z,62.30
2022-08-23T22:22:43.482Z,61.70
2022-08-23T22:25:13.531Z,61.40
2022-08-23T22:27:43.185Z,61.40
2022-08-23T22:30:13.255Z,61.00
2022-08-23T22:32:41.964Z,61.20
2022-08-23T22:35:11.660Z,60.70
2022-08-23T22:37:53.675Z,60.70
2022-08-23T22:40:29.246Z,60.50
2022-08-23T22:42:58.877Z,60.50
2022-08-23T22:45:27.125Z,60.10
2022-08-23T22:47:55.362Z,60.10
2022-08-23T22:50:23.772Z,59.90
2022-08-23T22:52:52.551Z,60.30
2022-08-23T22:55:21.523Z,60.10
2022-08-23T22:57:49.712Z,60.10
2022-08-23T23:00:19.499Z,60.00
2022-08-23T23:02:47.764Z,60.00
2022-08-23T23:05:16.140Z,60.00
2022-08-23T23:08:02.061Z,60.10
2022-08-23T23:10:30.810Z,60.00
2022-08-23T23:12:59.063Z,60.10
2022-08-23T23:15:28.732Z,60.00
2022-08-23T23:17:57.087Z,60.00
2022-08-23T23:20:40.835Z,60.00
2022-08-23T23:23:12.555Z,60.10
2022-08-23T23:25:41.984Z,60.00
2022-08-23T23:28:10.972Z,60.20
2022-08-23T23:30:42.051Z,60.10
2022-08-23T23:33:10.595Z,59.80
2022-08-23T23:35:39.609Z,59.90
2022-08-23T23:38:08.998Z,59.80
2022-08-23T23:40:38.619Z,59.80
2022-08-23T23:43:07.241Z,59.70
2022-08-23T23:45:41.386Z,59.50
2022-08-23T23:48:10.256Z,59.50
2022-08-23T23:50:45.561Z,59.50
2022-08-23T23:53:16.054Z,59.70
2022-08-23T23:55:44.810Z,59.80
2022-08-23T23:58:13.126Z,59.70
